Time;durP1;ratioP1;P1;durP2;ratioP2;P2;SDS_P1;SDS_P2;PMS_P1;PMS_P2;Temp;Humidity;BMP_temperature;BMP_pressure;BME280_temperature;BME280_humidity;BME280_pressure;Samples;Min_cycle;Max_cycle;Signal;HPM_P1;HPM_P2
2023/08/08 00:02:12;;;;;;;1.85;0.60;;;;;;;18.07;58.26;99894.09;4482665;32;33893;-75
2023/08/08 00:04:40;;;;;;;1.05;0.50;;;;;;;18.14;58.82;99887.19;4460006;32;32024;-76
2023/08/08 00:07:07;;;;;;;2.17;0.60;;;;;;;18.17;58.26;99895.09;4482023;32;33336;-76
2023/08/08 00:09:35;;;;;;;1.45;0.60;;;;;;;18.23;57.75;99896.09;4476229;32;33861;-76
2023/08/08 00:12:03;;;;;;;1.50;0.60;;;;;;;18.51;56.92;99899.12;4479378;32;33965;-76
2023/08/08 00:14:30;;;;;;;1.60;0.60;;;;;;;18.60;56.56;99907.13;4482813;32;34517;-77
2023/08/08 00:16:57;;;;;;;1.75;0.70;;;;;;;18.59;56.27;99905.34;4480124;32;33867;-77
2023/08/08 00:19:25;;;;;;;2.00;0.70;;;;;;;18.44;56.46;99905.12;4476511;32;34535;-75
2023/08/08 00:21:53;;;;;;;1.92;0.68;;;;;;;18.28;56.93;99899.66;4470385;32;34021;-77
2023/08/08 00:24:20;;;;;;;2.37;0.70;;;;;;;18.30;57.33;99904.06;4473746;32;33289;-76
2023/08/08 00:26:48;;;;;;;1.48;0.60;;;;;;;18.24;57.56;99903.09;4481893;32;32934;-77
2023/08/08 00:29:15;;;;;;;1.60;0.80;;;;;;;18.37;57.21;99903.25;4464134;32;34356;-74
2023/08/08 00:31:43;;;;;;;1.95;0.85;;;;;;;18.23;57.67;99901.34;4476027;32;33828;-75
2023/08/08 00:34:10;;;;;;;2.35;0.80;;;;;;;18.44;57.23;99899.88;4478248;32;33861;-77
2023/08/08 00:36:38;;;;;;;2.25;0.82;;;;;;;18.17;57.91;99906.47;4475365;32;33762;-77
2023/08/08 00:39:05;;;;;;;2.40;0.80;;;;;;;18.16;57.93;99903.84;4470660;32;33780;-75
2023/08/08 00:41:33;;;;;;;1.75;0.80;;;;;;;18.47;56.64;99894.69;4470296;32;33370;-75
2023/08/08 00:44:02;;;;;;;2.58;0.88;;;;;;;18.86;55.14;99894.37;4457622;32;33327;-75
2023/08/08 00:46:30;;;;;;;2.00;0.73;;;;;;;18.38;56.57;99905.03;4480061;32;33686;-76
2023/08/08 00:48:58;;;;;;;2.30;0.80;;;;;;;18.44;56.24;99905.12;4465923;32;33354;-75
2023/08/08 00:51:26;;;;;;;3.12;0.85;;;;;;;18.53;56.25;99910.50;4477815;32;33901;-75
2023/08/08 00:53:54;;;;;;;2.25;0.75;;;;;;;18.65;55.76;99900.19;4471968;32;33549;-75
2023/08/08 00:56:22;;;;;;;1.87;0.80;;;;;;;18.52;56.40;99900.88;4471726;32;34008;-76
2023/08/08 00:58:50;;;;;;;2.50;1.00;;;;;;;18.48;56.41;99909.56;4470857;32;33778;-76
2023/08/08 01:01:19;;;;;;;2.33;0.87;;;;;;;18.22;57.42;99904.81;4470970;32;33785;-75
2023/08/08 01:03:46;;;;;;;2.53;0.90;;;;;;;18.44;57.03;99905.12;4474321;32;34434;-77
2023/08/08 01:06:38;;;;;;;2.67;0.90;;;;;;;18.39;57.30;99901.56;4475413;32;33352;-78
2023/08/08 01:09:24;;;;;;;2.58;1.00;;;;;;;18.54;56.79;99907.00;4472620;31;33796;-74
2023/08/08 01:11:55;;;;;;;2.15;0.90;;;;;;;18.54;56.67;99901.75;4478322;32;33038;-77
2023/08/08 01:14:24;;;;;;;4.00;1.17;;;;;;;18.62;56.28;99905.41;4461509;32;33831;-75
2023/08/08 01:16:57;;;;;;;1.65;0.80;;;;;;;18.40;57.13;99903.31;4454142;32;33092;-76
2023/08/08 01:19:28;;;;;;;2.28;1.00;;;;;;;18.32;57.38;99910.19;4465727;32;33873;-76
2023/08/08 01:22:01;;;;;;;1.90;0.95;;;;;;;18.27;57.77;99900.53;4459868;32;33511;-75
2023/08/08 01:24:32;;;;;;;1.80;0.77;;;;;;;18.29;57.74;99900.53;4477862;32;33209;-76
2023/08/08 01:27:00;;;;;;;2.37;0.83;;;;;;;18.32;57.88;99897.09;4479093;32;33790;-77
2023/08/08 01:29:28;;;;;;;2.58;0.82;;;;;;;18.14;58.54;99901.19;4481191;32;34862;-78
2023/08/08 01:31:56;;;;;;;1.98;0.90;;;;;;;18.43;57.60;99903.38;4478487;32;34590;-75
2023/08/08 01:34:25;;;;;;;3.78;1.00;;;;;;;18.09;58.51;99897.59;4480488;32;34560;-76
2023/08/08 01:36:57;;;;;;;2.35;0.88;;;;;;;18.13;58.75;99899.41;4477028;32;33173;-76
2023/08/08 01:39:26;;;;;;;2.72;0.95;;;;;;;18.17;58.51;99895.97;4448948;32;33454;-77
2023/08/08 01:41:54;;;;;;;2.00;0.90;;;;;;;17.76;60.15;99898.78;4458294;32;34191;-77
2023/08/08 01:44:25;;;;;;;2.17;0.90;;;;;;;18.10;58.91;99899.38;4477553;32;32404;-76
2023/08/08 01:46:53;;;;;;;2.60;1.00;;;;;;;18.04;59.16;99904.50;4465198;32;32511;-76
2023/08/08 01:49:21;;;;;;;2.67;0.90;;;;;;;17.87;59.63;99902.50;4478078;32;34650;-77
2023/08/08 01:51:50;;;;;;;1.77;0.75;;;;;;;17.78;60.19;99906.69;4482493;32;33894;-74
2023/08/08 01:54:19;;;;;;;2.87;0.90;;;;;;;17.75;59.90;99907.53;4480377;32;33807;-74
2023/08/08 01:56:46;;;;;;;2.50;0.93;;;;;;;17.73;60.07;99906.62;4482660;32;33227;-74
2023/08/08 01:59:14;;;;;;;2.40;0.90;;;;;;;17.64;60.59;99906.44;4478638;32;33751;-77
2023/08/08 02:01:42;;;;;;;2.78;1.00;;;;;;;17.95;59.66;99904.38;4481327;32;33512;-75
2023/08/08 02:04:10;;;;;;;2.92;1.10;;;;;;;18.09;59.12;99913.34;4478955;32;33886;-75
2023/08/08 02:06:38;;;;;;;2.22;1.05;;;;;;;17.74;60.08;99910.09;4481640;32;34093;-78
2023/08/08 02:09:05;;;;;;;2.83;0.85;;;;;;;17.87;59.61;99914.72;4478895;32;34313;-74
2023/08/08 02:11:34;;;;;;;1.92;0.90;;;;;;;17.77;59.84;99916.28;4478998;32;34480;-73
2023/08/08 02:14:02;;;;;;;2.78;0.80;;;;;;;17.63;60.60;99921.25;4482393;32;33918;-74
2023/08/08 02:16:30;;;;;;;3.05;1.00;;;;;;;17.59;60.49;99911.56;4482115;32;33195;-78
2023/08/08 02:18:58;;;;;;;1.98;0.95;;;;;;;17.70;60.28;99914.41;4482583;32;34425;-74
2023/08/08 02:21:26;;;;;;;2.92;0.90;;;;;;;17.65;60.17;99916.03;4473479;32;33287;-76
2023/08/08 02:23:54;;;;;;;2.30;0.93;;;;;;;17.80;59.90;99913.69;4481413;32;33593;-77
2023/08/08 02:26:21;;;;;;;2.70;0.90;;;;;;;17.67;60.30;99914.34;4481781;32;33079;-75
2023/08/08 02:28:49;;;;;;;3.22;0.98;;;;;;;17.68;60.11;99922.22;4481777;32;33771;-74
2023/08/08 02:31:20;;;;;;;1.98;1.00;;;;;;;17.61;60.64;99924.72;4467681;32;32133;-77
2023/08/08 02:33:51;;;;;;;2.85;1.10;;;;;;;17.71;60.35;99924.00;4478710;32;33599;-75
2023/08/08 02:36:19;;;;;;;2.58;0.95;;;;;;;17.49;61.10;99925.37;4482095;32;33761;-74
2023/08/08 02:38:46;;;;;;;2.78;0.90;;;;;;;17.54;61.03;99938.53;4481990;32;33457;-75
2023/08/08 02:41:14;;;;;;;2.50;0.90;;;;;;;17.51;60.95;99943.72;4481689;32;34327;-76
2023/08/08 02:43:42;;;;;;;2.50;0.90;;;;;;;17.35;61.71;99935.59;4482403;32;33701;-76
2023/08/08 02:46:09;;;;;;;3.28;1.00;;;;;;;17.36;61.69;99945.19;4477703;32;32019;-77
2023/08/08 02:48:37;;;;;;;2.58;1.00;;;;;;;17.47;61.32;99951.53;4482147;32;33753;-75
2023/08/08 02:51:05;;;;;;;2.10;1.00;;;;;;;17.25;61.94;99946.75;4454044;32;33502;-75
2023/08/08 02:53:33;;;;;;;2.08;0.90;;;;;;;17.49;61.00;99944.56;4467040;32;32218;-74
2023/08/08 02:56:01;;;;;;;3.08;1.00;;;;;;;17.40;61.41;99952.28;4481222;32;33127;-73
2023/08/08 02:58:29;;;;;;;3.28;1.10;;;;;;;17.49;60.97;99954.19;4482420;32;33736;-74
2023/08/08 03:00:57;;;;;;;3.12;1.00;;;;;;;17.46;61.25;99952.38;4481669;32;34734;-77
2023/08/08 03:03:27;;;;;;;1.70;0.87;;;;;;;17.70;60.27;99951.09;4481918;32;33412;-74
2023/08/08 03:05:55;;;;;;;2.00;0.90;;;;;;;17.69;60.27;99944.97;4481534;32;33412;-76
2023/08/08 03:08:23;;;;;;;3.00;1.00;;;;;;;17.49;60.97;99947.19;4478833;32;33640;-77
2023/08/08 03:10:50;;;;;;;2.83;1.08;;;;;;;17.72;60.15;99951.12;4479331;32;34594;-77
2023/08/08 03:13:19;;;;;;;2.97;1.00;;;;;;;17.25;61.50;99951.97;4482735;32;34289;-76
2023/08/08 03:15:48;;;;;;;2.37;0.98;;;;;;;17.38;61.27;99953.94;4484156;32;33224;-76
2023/08/08 03:18:16;;;;;;;2.20;0.87;;;;;;;17.17;62.33;99964.91;4483838;32;33716;-77
2023/08/08 03:20:43;;;;;;;2.08;0.90;;;;;;;17.37;61.47;99967.91;4484254;32;32990;-76
2023/08/08 03:23:11;;;;;;;3.00;1.10;;;;;;;17.37;61.63;99967.91;4475151;32;33586;-76
2023/08/08 03:25:39;;;;;;;3.50;1.17;;;;;;;16.98;62.84;99970.56;4466456;32;33207;-78
2023/08/08 03:28:07;;;;;;;1.90;1.00;;;;;;;17.05;62.63;99975.09;4483509;32;34417;-74
2023/08/08 03:30:38;;;;;;;2.43;0.93;;;;;;;16.91;63.11;99974.81;4484077;32;33423;-74
2023/08/08 03:33:06;;;;;;;2.65;0.95;;;;;;;17.02;62.87;99988.13;4483397;32;33137;-73
2023/08/08 03:35:35;;;;;;;3.33;1.23;;;;;;;17.39;61.50;99981.91;4484152;32;34058;-75
2023/08/08 03:38:02;;;;;;;3.30;1.12;;;;;;;17.24;61.79;99986.84;4483114;32;33229;-76
2023/08/08 03:40:30;;;;;;;2.67;1.02;;;;;;;17.53;60.78;99983.94;4482932;32;34641;-75
2023/08/08 03:42:59;;;;;;;3.40;1.00;;;;;;;17.61;60.32;99987.56;4483835;32;34444;-76
2023/08/08 03:45:27;;;;;;;2.30;0.98;;;;;;;17.44;60.86;99993.37;4483971;32;33458;-76
2023/08/08 03:47:54;;;;;;;2.90;1.10;;;;;;;16.99;62.49;99991.53;4483561;32;33484;-74
2023/08/08 03:50:22;;;;;;;3.15;1.08;;;;;;;16.97;62.72;99997.59;4483662;32;33323;-74
2023/08/08 03:52:50;;;;;;;3.65;1.08;;;;;;;17.22;61.82;99999.91;4483621;32;33757;-76
2023/08/08 03:55:17;;;;;;;3.17;1.23;;;;;;;17.52;60.69;99992.63;4483578;32;33221;-74
2023/08/08 03:57:45;;;;;;;2.60;1.10;;;;;;;17.45;60.40;99996.88;4483244;32;33904;-75
2023/08/08 04:00:13;;;;;;;3.37;0.90;;;;;;;17.63;59.68;99997.22;4482272;32;33465;-77
2023/08/08 04:02:40;;;;;;;2.87;1.20;;;;;;;17.49;60.14;100004.81;4483241;32;34085;-74
2023/08/08 04:05:08;;;;;;;2.15;1.00;;;;;;;17.37;60.47;100009.81;4483504;32;33565;-77
2023/08/08 04:07:36;;;;;;;2.72;1.00;;;;;;;17.28;60.55;100014.84;4483606;32;33791;-77
2023/08/08 04:10:04;;;;;;;3.08;1.27;;;;;;;17.33;60.42;100018.47;4483860;32;34520;-75
2023/08/08 04:12:32;;;;;;;2.70;1.10;;;;;;;17.13;61.36;100019.75;4482729;32;33600;-75
2023/08/08 04:15:00;;;;;;;3.60;1.08;;;;;;;17.27;60.90;100023.56;4479303;32;33836;-74
2023/08/08 04:17:28;;;;;;;3.03;1.30;;;;;;;17.24;60.92;100026.13;4483218;32;34478;-75
2023/08/08 04:19:56;;;;;;;3.28;1.15;;;;;;;17.03;61.56;100035.25;4483552;32;33720;-76
2023/08/08 04:22:24;;;;;;;3.37;1.35;;;;;;;17.13;61.37;100030.22;4483581;32;33466;-75
2023/08/08 04:24:51;;;;;;;6.22;1.40;;;;;;;16.96;62.01;100038.59;4482935;32;33202;-77
2023/08/08 04:27:19;;;;;;;2.70;1.20;;;;;;;16.82;62.70;100048.72;4482473;32;33965;-77
2023/08/08 04:29:47;;;;;;;2.25;1.00;;;;;;;16.96;62.56;100042.94;4483137;32;34436;-77
2023/08/08 04:32:14;;;;;;;4.00;1.23;;;;;;;17.29;61.14;100037.56;4481605;32;33565;-77
2023/08/08 04:34:43;;;;;;;3.37;1.27;;;;;;;17.02;61.75;100049.19;4483795;32;32704;-75
2023/08/08 04:37:11;;;;;;;2.70;1.05;;;;;;;17.14;61.39;100042.47;4480423;32;33874;-77
2023/08/08 04:39:38;;;;;;;4.77;1.47;;;;;;;17.16;61.33;100035.53;4483407;32;33510;-77
2023/08/08 04:42:06;;;;;;;3.42;1.48;;;;;;;17.07;61.58;100044.97;4483623;32;34579;-75
2023/08/08 04:44:33;;;;;;;3.83;1.40;;;;;;;17.20;61.42;100042.59;4471385;32;33419;-74
2023/08/08 04:47:01;;;;;;;3.72;1.50;;;;;;;16.95;61.50;100047.28;4474864;32;34534;-75
2023/08/08 04:49:29;;;;;;;3.95;1.30;;;;;;;17.11;61.65;100045.88;4481970;32;33845;-75
2023/08/08 04:51:56;;;;;;;4.37;1.33;;;;;;;17.27;61.01;100044.50;4475167;32;33772;-74
2023/08/08 04:54:24;;;;;;;3.45;1.15;;;;;;;17.66;58.77;100046.19;4482058;32;33945;-76
2023/08/08 04:56:52;;;;;;;3.55;1.40;;;;;;;17.43;59.59;100041.34;4476199;32;33509;-75
2023/08/08 04:59:20;;;;;;;3.87;1.50;;;;;;;17.38;59.92;100048.22;4473944;32;33916;-77
2023/08/08 05:01:47;;;;;;;4.40;1.70;;;;;;;17.48;59.71;100051.91;4481628;32;34171;-75
2023/08/08 05:04:16;;;;;;;4.60;1.40;;;;;;;17.48;59.58;100055.44;4475022;32;32916;-76
2023/08/08 05:06:44;;;;;;;3.70;1.53;;;;;;;17.67;62.35;100045.31;4475947;32;33507;-75
2023/08/08 05:09:12;;;;;;;3.60;1.40;;;;;;;17.85;63.55;100056.22;4476739;32;33544;-77
2023/08/08 05:11:39;;;;;;;4.60;1.60;;;;;;;18.04;62.88;100051.28;4482466;32;34409;-74
2023/08/08 05:14:07;;;;;;;4.53;1.50;;;;;;;18.27;61.95;100065.72;4483449;32;32583;-75
2023/08/08 05:16:35;;;;;;;3.28;1.50;;;;;;;18.30;61.63;100064.00;4479377;32;33528;-77
2023/08/08 05:19:03;;;;;;;4.03;1.57;;;;;;;18.22;60.27;100061.25;4474184;32;33520;-75
2023/08/08 05:21:30;;;;;;;5.20;1.70;;;;;;;18.06;60.50;100065.34;4478292;32;34349;-76
2023/08/08 05:23:58;;;;;;;3.47;1.52;;;;;;;18.39;59.63;100065.06;4474523;32;33244;-77
2023/08/08 05:26:27;;;;;;;2.83;1.40;;;;;;;18.36;59.89;100064.13;4473033;32;33872;-78
2023/08/08 05:28:54;;;;;;;4.25;1.60;;;;;;;18.48;57.67;100069.56;4459894;32;33478;-78
2023/08/08 05:31:22;;;;;;;4.05;1.62;;;;;;;18.60;57.77;100071.50;4471625;32;33540;-80
2023/08/08 05:33:50;;;;;;;5.55;1.40;;;;;;;18.61;58.09;100076.78;4459588;32;32098;-78
2023/08/08 05:36:17;;;;;;;4.37;1.70;;;;;;;18.99;55.08;100071.28;4471658;32;33858;-79
2023/08/08 05:38:44;;;;;;;4.65;1.48;;;;;;;19.16;54.25;100075.91;4480808;32;33226;-79
2023/08/08 05:41:12;;;;;;;3.55;1.50;;;;;;;19.05;54.40;100079.25;4482213;32;33524;-77
2023/08/08 05:43:40;;;;;;;4.95;1.65;;;;;;;18.81;54.86;100068.38;4482770;32;34333;-76
2023/08/08 05:46:07;;;;;;;3.65;1.50;;;;;;;18.66;55.82;100079.50;4480515;32;34482;-78
2023/08/08 05:48:35;;;;;;;3.95;1.40;;;;;;;18.90;54.51;100078.16;4471432;32;34334;-79
2023/08/08 05:51:04;;;;;;;3.87;1.40;;;;;;;18.92;54.59;100081.69;4480752;32;33589;-76
2023/08/08 05:53:32;;;;;;;4.47;1.50;;;;;;;18.91;54.64;100080.81;4480218;32;33935;-78
2023/08/08 05:56:00;;;;;;;4.53;1.80;;;;;;;18.95;55.00;100082.62;4479678;32;33605;-77
2023/08/08 05:58:27;;;;;;;4.47;1.62;;;;;;;18.74;55.42;100079.62;4483043;32;33758;-79
2023/08/08 06:00:55;;;;;;;3.22;1.40;;;;;;;19.15;53.39;100084.66;4481276;32;33671;-76
2023/08/08 06:03:23;;;;;;;4.12;1.40;;;;;;;19.12;53.89;100082.84;4482838;32;33920;-79
2023/08/08 06:05:51;;;;;;;3.65;1.50;;;;;;;19.06;53.85;100074.87;4476576;32;33751;-77
2023/08/08 06:08:18;;;;;;;4.43;1.50;;;;;;;18.97;54.37;100078.28;4470521;32;32115;-78
2023/08/08 06:10:46;;;;;;;4.15;1.40;;;;;;;19.10;53.71;100058.31;4482784;32;33828;-78
2023/08/08 06:13:13;;;;;;;4.10;1.60;;;;;;;19.28;53.39;100076.09;4482624;32;33954;-77
2023/08/08 06:15:41;;;;;;;4.35;1.70;;;;;;;18.88;55.05;100069.38;4477426;32;33797;-79
2023/08/08 06:18:09;;;;;;;3.83;1.40;;;;;;;19.08;53.54;100082.78;4476227;32;33895;-80
2023/08/08 06:20:37;;;;;;;5.12;1.42;;;;;;;19.24;53.53;100075.16;4473468;32;34270;-77
2023/08/08 06:23:04;;;;;;;3.40;1.50;;;;;;;19.40;52.87;100092.00;4471037;32;33387;-78
2023/08/08 06:25:32;;;;;;;3.83;1.40;;;;;;;19.64;52.74;100090.53;4471383;32;33677;-76
2023/08/08 06:27:59;;;;;;;4.45;1.40;;;;;;;19.47;53.06;100086.81;4471237;32;34020;-80
2023/08/08 06:30:27;;;;;;;4.03;1.42;;;;;;;19.55;52.91;100098.34;4480917;32;33764;-75
2023/08/08 06:32:55;;;;;;;4.60;1.55;;;;;;;19.73;51.99;100098.59;4479097;32;33364;-78
2023/08/08 06:35:22;;;;;;;4.95;1.60;;;;;;;19.78;51.17;100102.16;4473533;32;34609;-76
2023/08/08 06:37:50;;;;;;;4.87;1.60;;;;;;;19.98;51.18;100091.00;4473748;32;33739;-78
2023/08/08 06:40:17;;;;;;;4.05;1.50;;;;;;;19.72;52.07;100094.22;4479178;32;34820;-78
2023/08/08 06:42:45;;;;;;;4.35;1.60;;;;;;;19.89;50.61;100090.88;4482202;32;33320;-78
2023/08/08 06:45:12;;;;;;;3.87;1.60;;;;;;;19.83;51.56;100092.56;4482142;32;34023;-81
2023/08/08 06:47:40;;;;;;;3.40;1.48;;;;;;;20.08;50.17;100089.34;4480233;32;34320;-78
2023/08/08 06:50:08;;;;;;;4.03;1.40;;;;;;;19.99;50.11;100088.37;4480012;32;34551;-78
2023/08/08 06:52:36;;;;;;;4.35;1.40;;;;;;;19.97;49.98;100083.97;4484151;32;33184;-77
2023/08/08 06:55:04;;;;;;;3.78;1.52;;;;;;;20.05;49.62;100092.84;4484131;32;33915;-76
2023/08/08 06:57:33;;;;;;;4.35;1.60;;;;;;;19.81;49.99;100089.03;4477780;32;34426;-78
2023/08/08 07:00:04;;;;;;;3.70;1.58;;;;;;;19.88;50.48;100094.41;4468458;32;34078;-79
2023/08/08 07:02:32;;;;;;;4.03;1.60;;;;;;;20.02;49.61;100083.16;4471701;32;33639;-76
2023/08/08 07:05:00;;;;;;;4.40;1.60;;;;;;;20.37;49.03;100095.78;4472092;32;33541;-76
2023/08/08 07:07:30;;;;;;;5.22;1.83;;;;;;;20.20;49.72;100098.25;4475292;32;33949;-77
2023/08/08 07:09:58;;;;;;;6.45;1.83;;;;;;;20.49;49.10;100097.63;4476990;32;33461;-79
2023/08/08 07:12:25;;;;;;;4.87;1.70;;;;;;;20.79;48.90;100109.34;4475115;32;33424;-79
2023/08/08 07:14:53;;;;;;;4.47;1.73;;;;;;;20.89;48.19;100103.28;4455067;32;34276;-79
2023/08/08 07:17:21;;;;;;;6.18;1.90;;;;;;;20.85;47.98;100106.75;4456461;32;33401;-78
2023/08/08 07:19:48;;;;;;;7.28;2.12;;;;;;;20.97;46.78;100109.47;4477147;32;33868;-79
2023/08/08 07:22:16;;;;;;;4.37;1.60;;;;;;;21.10;46.52;100109.59;4483883;32;33059;-78
2023/08/08 07:24:43;;;;;;;6.57;1.90;;;;;;;21.08;46.78;100106.94;4483352;32;34154;-77
2023/08/08 07:27:11;;;;;;;4.73;1.70;;;;;;;21.25;46.41;100114.03;4478620;32;33486;-77
2023/08/08 07:29:38;;;;;;;5.35;1.83;;;;;;;21.35;46.00;100116.75;4464738;32;32027;-78
2023/08/08 07:32:06;;;;;;;4.93;1.80;;;;;;;21.33;45.57;100113.25;4477409;32;33464;-76
2023/08/08 07:34:34;;;;;;;4.55;1.50;;;;;;;21.00;46.92;100120.03;4482490;32;33518;-76
2023/08/08 07:37:02;;;;;;;4.37;1.60;;;;;;;21.43;45.69;100118.56;4466936;32;33538;-77
2023/08/08 07:39:30;;;;;;;3.75;1.60;;;;;;;21.21;46.09;100123.72;4480199;32;33623;-77
2023/08/08 07:41:58;;;;;;;3.63;1.50;;;;;;;21.26;46.32;100127.22;4481112;32;33922;-76
2023/08/08 07:44:26;;;;;;;3.25;1.37;;;;;;;21.69;45.39;100124.91;4483430;32;34531;-79
2023/08/08 07:46:54;;;;;;;4.20;1.33;;;;;;;21.83;44.86;100127.59;4483542;32;33251;-80
2023/08/08 07:49:21;;;;;;;4.40;1.52;;;;;;;22.13;43.72;100132.06;4483455;32;34539;-78
2023/08/08 07:51:49;;;;;;;3.92;1.60;;;;;;;21.93;44.39;100132.00;4464482;32;33464;-76
2023/08/08 07:54:17;;;;;;;5.32;1.50;;;;;;;22.18;44.34;100121.53;4479252;32;34629;-77
2023/08/08 07:56:45;;;;;;;4.57;1.40;;;;;;;22.27;43.42;100126.88;4483261;32;34387;-77
2023/08/08 07:59:12;;;;;;;3.55;1.40;;;;;;;22.40;43.42;100119.84;4482639;32;33899;-79
2023/08/08 08:01:41;;;;;;;3.17;1.20;;;;;;;22.50;43.97;100128.66;4482909;32;33941;-79
2023/08/08 08:04:09;;;;;;;4.40;1.30;;;;;;;22.76;43.15;100120.78;4464907;32;34248;-79
2023/08/08 08:06:36;;;;;;;4.55;1.50;;;;;;;23.30;41.59;100118.13;4483773;32;33713;-76
2023/08/08 08:09:04;;;;;;;4.55;1.40;;;;;;;23.35;41.51;100122.50;4483672;32;33947;-77
2023/08/08 08:11:32;;;;;;;3.30;1.30;;;;;;;23.49;41.69;100129.53;4483909;32;33286;-79
2023/08/08 08:13:59;;;;;;;4.97;1.30;;;;;;;23.78;40.89;100123.22;4483071;32;34436;-76
2023/08/08 08:16:27;;;;;;;4.55;1.45;;;;;;;23.96;40.16;100120.56;4482317;32;33819;-77
2023/08/08 08:18:55;;;;;;;4.32;1.30;;;;;;;24.06;40.37;100118.75;4469496;32;33712;-78
2023/08/08 08:21:22;;;;;;;3.83;1.42;;;;;;;23.78;41.21;100125.88;4482719;32;33953;-78
2023/08/08 08:23:49;;;;;;;4.70;1.42;;;;;;;24.05;40.43;100130.19;4470497;32;33865;-81
2023/08/08 08:26:17;;;;;;;4.40;1.30;;;;;;;24.16;39.29;100127.50;4471623;32;33549;-78
2023/08/08 08:28:45;;;;;;;3.50;1.23;;;;;;;24.37;38.78;100132.66;4477755;32;33680;-76
2023/08/08 08:31:13;;;;;;;4.32;1.40;;;;;;;24.43;39.00;100137.91;4473006;32;33049;-76
2023/08/08 08:33:41;;;;;;;4.35;1.20;;;;;;;24.68;38.66;100148.38;4461796;32;33977;-75
2023/08/08 08:36:08;;;;;;;3.87;1.27;;;;;;;24.55;38.31;100144.06;4480458;32;33158;-77
2023/08/08 08:38:38;;;;;;;3.72;1.12;;;;;;;24.83;37.61;100148.25;4481531;32;34778;-75
2023/08/08 08:41:06;;;;;;;3.83;1.23;;;;;;;24.59;38.08;100149.34;4475886;32;33206;-77
2023/08/08 08:43:33;;;;;;;3.58;1.20;;;;;;;24.83;36.96;100150.03;4467452;32;33248;-75
2023/08/08 08:46:02;;;;;;;3.95;1.35;;;;;;;24.69;37.14;100152.81;4455830;32;33898;-74
2023/08/08 08:48:31;;;;;;;3.45;1.25;;;;;;;25.06;36.22;100157.78;4473692;32;34565;-75
2023/08/08 08:50:59;;;;;;;3.62;1.30;;;;;;;24.88;37.74;100146.47;4481066;32;32837;-74
2023/08/08 08:53:26;;;;;;;2.55;1.10;;;;;;;25.05;36.90;100143.69;4473152;32;33244;-74
2023/08/08 08:55:57;;;;;;;4.55;1.10;;;;;;;25.11;36.97;100140.97;4482237;32;33839;-75
2023/08/08 08:58:25;;;;;;;3.47;1.57;;;;;;;25.08;36.53;100134.81;4482695;32;33601;-75
2023/08/08 09:00:53;;;;;;;2.83;1.30;;;;;;;24.77;36.26;100137.72;4481434;32;33292;-75
2023/08/08 09:03:21;;;;;;;4.70;1.48;;;;;;;24.62;37.07;100138.72;4452052;32;33399;-77
2023/08/08 09:05:49;;;;;;;3.53;1.40;;;;;;;24.54;37.85;100135.25;4481709;32;32574;-74
2023/08/08 09:08:16;;;;;;;4.00;1.30;;;;;;;24.64;38.21;100136.06;4466898;32;34466;-75
2023/08/08 09:10:44;;;;;;;3.42;1.40;;;;;;;24.81;38.30;100141.22;4482042;32;33795;-74
2023/08/08 09:13:12;;;;;;;4.18;1.33;;;;;;;24.99;37.63;100137.53;4482551;32;33864;-76
2023/08/08 09:15:39;;;;;;;4.53;1.40;;;;;;;25.05;37.31;100140.12;4472824;32;34806;-78
2023/08/08 09:18:07;;;;;;;3.42;1.40;;;;;;;24.83;38.12;100127.06;4463868;32;33694;-77
2023/08/08 09:20:35;;;;;;;3.00;1.23;;;;;;;24.90;38.21;100136.72;4477284;32;33679;-76
2023/08/08 09:23:03;;;;;;;4.47;1.25;;;;;;;25.40;36.99;100141.59;4476107;31;32522;-74
2023/08/08 09:25:31;;;;;;;3.15;1.30;;;;;;;25.30;36.72;100144.34;4470721;32;33503;-76
2023/08/08 09:27:58;;;;;;;4.43;1.25;;;;;;;25.33;37.04;100148.72;4477722;32;33328;-77
2023/08/08 09:30:26;;;;;;;5.45;1.30;;;;;;;25.05;37.66;100143.69;4454314;32;33149;-76
2023/08/08 09:32:58;;;;;;;3.47;1.30;;;;;;;25.59;37.15;100137.84;4477579;32;33517;-75
2023/08/08 09:35:26;;;;;;;3.30;1.20;;;;;;;25.47;37.46;100152.09;4481544;32;33355;-76
2023/08/08 09:37:55;;;;;;;4.07;1.43;;;;;;;25.26;37.26;100141.72;4470117;32;33596;-74
2023/08/08 09:40:23;;;;;;;3.22;1.30;;;;;;;24.93;38.58;100147.28;4479151;32;32961;-78
2023/08/08 09:42:52;;;;;;;4.18;1.40;;;;;;;25.19;37.64;100143.53;4476686;32;33406;-76
2023/08/08 09:45:20;;;;;;;3.75;1.50;;;;;;;24.98;37.69;100146.41;4480622;32;34274;-75
2023/08/08 09:47:49;;;;;;;4.32;1.20;;;;;;;24.99;37.03;100142.84;4478873;32;33916;-77
2023/08/08 09:50:18;;;;;;;3.42;1.40;;;;;;;24.84;37.85;100142.09;4476749;32;33021;-75
2023/08/08 09:52:47;;;;;;;4.60;1.30;;;;;;;25.01;37.08;100141.91;4470889;32;34123;-79
2023/08/08 09:55:15;;;;;;;3.05;1.30;;;;;;;25.28;36.14;100140.84;4477857;32;33276;-79
2023/08/08 09:57:43;;;;;;;4.60;1.35;;;;;;;25.21;37.17;100133.78;4462380;32;33934;-78
2023/08/08 10:00:15;;;;;;;3.53;1.20;;;;;;;25.06;37.55;100145.41;4482240;32;33082;-78
2023/08/08 10:02:45;;;;;;;4.12;1.35;;;;;;;25.51;36.79;100139.69;4477888;31;33093;-78
2023/08/08 10:05:14;;;;;;;4.90;1.45;;;;;;;25.49;36.37;100138.84;4477597;32;33384;-75
2023/08/08 10:07:42;;;;;;;4.05;1.50;;;;;;;25.59;36.17;100140.47;4478454;32;34128;-76
2023/08/08 10:10:10;;;;;;;4.75;1.23;;;;;;;25.52;36.22;100141.47;4469624;32;33698;-77
2023/08/08 10:12:39;;;;;;;4.82;1.45;;;;;;;25.82;34.58;100131.38;4472716;32;33583;-76
2023/08/08 10:15:07;;;;;;;3.50;1.30;;;;;;;25.74;35.46;100125.28;4475648;32;32934;-76
2023/08/08 10:17:39;;;;;;;3.67;1.40;;;;;;;25.75;35.35;100125.28;4458089;32;32064;-76
2023/08/08 10:20:11;;;;;;;4.17;1.50;;;;;;;25.83;35.60;100130.50;4477908;32;32734;-76
2023/08/08 10:22:44;;;;;;;4.10;1.50;;;;;;;25.67;36.68;100120.06;4472764;32;33258;-77
2023/08/08 10:25:26;;;;;;;5.10;1.50;;;;;;;25.84;36.67;100129.59;4472030;32;34391;-76
2023/08/08 10:28:10;;;;;;;3.20;1.25;;;;;;;25.98;35.17;100127.69;4471357;32;33587;-76
2023/08/08 10:30:59;;;;;;;3.75;1.20;;;;;;;25.89;34.83;100117.16;4474829;32;32584;-76
2023/08/08 10:33:28;;;;;;;4.68;1.25;;;;;;;25.96;33.89;100118.87;4480800;32;33258;-77
2023/08/08 10:35:56;;;;;;;3.33;1.27;;;;;;;25.38;36.29;100120.41;4480692;32;33625;-76
2023/08/08 10:38:24;;;;;;;2.83;1.27;;;;;;;25.59;35.00;100119.25;4481246;32;33353;-77
2023/08/08 10:40:57;;;;;;;3.37;1.30;;;;;;;25.59;35.36;100113.97;4482287;32;33306;-76
2023/08/08 10:43:27;;;;;;;3.72;1.27;;;;;;;25.97;33.79;100111.78;4481829;32;33116;-76
2023/08/08 10:46:00;;;;;;;3.53;1.37;;;;;;;25.72;34.42;100116.47;4476518;32;33741;-75
2023/08/08 10:48:54;;;;;;;4.95;1.35;;;;;;;25.72;34.66;100108.53;4461582;32;33655;-76
2023/08/08 10:51:22;;;;;;;3.58;1.27;;;;;;;25.55;35.43;100111.37;4477483;32;32518;-75
2023/08/08 10:53:53;;;;;;;3.17;1.20;;;;;;;25.36;35.94;100118.66;4458045;32;34569;-76
2023/08/08 10:56:22;;;;;;;2.50;1.17;;;;;;;25.15;36.17;100115.31;4446825;32;31602;-77
2023/08/08 10:58:50;;;;;;;4.00;1.40;;;;;;;25.38;36.18;100114.19;4459865;32;33129;-76
2023/08/08 11:01:18;;;;;;;3.28;1.23;;;;;;;25.87;35.31;100097.72;4458211;32;32899;-76
2023/08/08 11:03:48;;;;;;;3.73;1.30;;;;;;;25.95;34.62;100093.19;4468013;32;34014;-77
2023/08/08 11:06:16;;;;;;;3.17;1.20;;;;;;;25.50;35.63;100103.47;4461194;32;34105;-76
2023/08/08 11:08:44;;;;;;;3.00;1.35;;;;;;;25.93;33.76;100105.63;4477584;32;33208;-78
2023/08/08 11:11:12;;;;;;;2.92;1.05;;;;;;;26.07;34.33;100106.28;4472313;32;33789;-76
2023/08/08 11:13:40;;;;;;;3.00;1.20;;;;;;;26.31;34.63;100106.88;4470540;32;34490;-77
2023/08/08 11:16:07;;;;;;;4.35;1.37;;;;;;;26.01;34.75;100098.41;4477107;32;34667;-74
2023/08/08 11:18:35;;;;;;;3.75;1.30;;;;;;;25.86;35.08;100101.25;4458387;32;33637;-75
2023/08/08 11:21:10;;;;;;;3.45;1.23;;;;;;;25.97;35.13;100099.38;4481777;32;33663;-75
2023/08/08 11:23:46;;;;;;;4.65;1.40;;;;;;;26.27;35.59;100103.38;4480241;32;32825;-76
2023/08/08 11:26:17;;;;;;;3.15;1.30;;;;;;;26.37;34.50;100097.94;4474405;32;33471;-74
2023/08/08 11:28:52;;;;;;;3.78;1.45;;;;;;;26.21;33.99;100102.56;4479591;32;33595;-75
2023/08/08 11:31:20;;;;;;;4.55;1.45;;;;;;;26.54;34.00;100095.00;4471081;32;33467;-77
2023/08/08 11:33:48;;;;;;;4.87;1.50;;;;;;;26.30;34.46;100097.13;4478326;32;33603;-76
2023/08/08 11:36:16;;;;;;;3.50;1.35;;;;;;;26.16;35.43;100091.16;4483697;32;33713;-74